Time;durP1;ratioP1;P1;durP2;ratioP2;P2;SDS_P1;SDS_P2;PMS_P1;PMS_P2;Temp;Humidity;BMP_temperature;BMP_pressure;BME280_temperature;BME280_humidity;BME280_pressure;Samples;Min_cycle;Max_cycle;Signal;HPM_P1;HPM_P2
2023/01/27 00:02:23;;;;;;;20.63;12.60;;;4.50;99.90;;;;;;5049145;28;20037;-60
2023/01/27 00:04:49;;;;;;;25.05;12.90;;;4.50;99.90;;;;;;5048110;28;20053;-58
2023/01/27 00:07:15;;;;;;;16.67;11.33;;;4.50;99.90;;;;;;5049407;28;20580;-57
2023/01/27 00:09:40;;;;;;;25.13;12.37;;;4.50;99.90;;;;;;5050333;28;20040;-56
2023/01/27 00:14:54;;;;;;;24.42;12.57;;;4.50;99.90;;;;;;5049859;28;20486;-59
2023/01/27 00:17:20;;;;;;;17.33;11.77;;;4.50;99.90;;;;;;5049217;28;20031;-58
2023/01/27 00:19:45;;;;;;;29.83;13.63;;;4.50;99.90;;;;;;5049945;28;20130;-58
2023/01/27 00:24:55;;;;;;;18.60;13.10;;;4.50;99.90;;;;;;5048786;28;20049;-59
2023/01/27 00:27:21;;;;;;;23.63;15.10;;;4.50;99.90;;;;;;5049882;28;20111;-58
2023/01/27 00:29:46;;;;;;;30.83;15.63;;;4.50;99.90;;;;;;5049888;28;20043;-58
2023/01/27 00:34:56;;;;;;;24.42;15.73;;;4.50;99.90;;;;;;5047251;28;20491;-58
2023/01/27 00:37:22;;;;;;;22.90;15.70;;;4.50;99.90;;;;;;5049471;28;20029;-58
2023/01/27 00:39:47;;;;;;;27.13;16.10;;;4.50;99.90;;;;;;5049533;28;20076;-57
2023/01/27 00:42:13;;;;;;;24.63;16.00;;;4.50;99.90;;;;;;5049303;28;20095;-59
2023/01/27 00:45:47;;;;;;;26.38;15.43;;;4.50;99.90;;;;;;5046641;28;20518;-58
2023/01/27 00:47:24;;;;;;;19.48;15.20;;;4.50;99.90;;;;;;5049144;28;20037;-59
2023/01/27 00:49:50;;;;;;;20.20;15.13;;;4.50;99.90;;;;;;5049378;28;20438;-57
2023/01/27 00:52:16;;;;;;;17.58;14.18;;;4.40;99.90;;;;;;5049064;28;20033;-57
2023/01/27 00:54:41;;;;;;;15.93;10.77;;;4.40;99.90;;;;;;5048134;28;20518;-56
2023/01/27 00:57:07;;;;;;;16.13;12.83;;;4.50;99.90;;;;;;5047994;28;20043;-59
2023/01/27 00:59:32;;;;;;;19.27;12.40;;;4.40;99.90;;;;;;5049000;28;20033;-58
2023/01/27 01:01:58;;;;;;;13.80;10.10;;;4.40;99.90;;;;;;5049000;28;20072;-59
2023/01/27 01:04:23;;;;;;;14.23;9.73;;;4.40;99.90;;;;;;5048828;28;20048;-58
2023/01/27 01:06:49;;;;;;;15.57;10.53;;;4.40;99.90;;;;;;5048668;28;20078;-60
2023/01/27 01:09:14;;;;;;;12.60;9.77;;;4.40;99.90;;;;;;5048823;28;20115;-59
2023/01/27 01:11:40;;;;;;;13.53;9.67;;;4.40;99.90;;;;;;5048243;28;20031;-59
2023/01/27 01:14:06;;;;;;;19.17;11.37;;;4.40;99.90;;;;;;5048987;28;20063;-58
2023/01/27 01:16:31;;;;;;;13.90;10.33;;;4.40;99.90;;;;;;5048908;28;20417;-59
2023/01/27 01:18:57;;;;;;;14.10;10.13;;;4.40;99.90;;;;;;5048656;28;20160;-58
2023/01/27 01:21:22;;;;;;;12.13;10.23;;;4.50;99.90;;;;;;5048777;28;20044;-59
2023/01/27 01:23:48;;;;;;;11.67;9.83;;;4.50;99.90;;;;;;5047968;28;20037;-59
2023/01/27 01:26:15;;;;;;;12.77;10.48;;;4.50;99.90;;;;;;5048494;28;20028;-58
2023/01/27 01:28:43;;;;;;;16.30;10.95;;;4.50;99.90;;;;;;5048253;28;20112;-59
2023/01/27 01:31:14;;;;;;;14.93;11.23;;;4.40;99.90;;;;;;5048528;28;20040;-59
2023/01/27 01:33:40;;;;;;;19.77;11.88;;;4.50;99.90;;;;;;5047858;28;20560;-59
2023/01/27 01:36:08;;;;;;;13.48;11.05;;;4.50;99.90;;;;;;5048942;28;20235;-58
2023/01/27 01:38:34;;;;;;;15.93;12.25;;;4.50;99.90;;;;;;5048295;28;20045;-59
2023/01/27 01:40:59;;;;;;;13.05;10.52;;;4.50;99.90;;;;;;5048638;28;20083;-59
2023/01/27 01:43:26;;;;;;;17.25;10.57;;;4.50;99.90;;;;;;5047746;28;20375;-57
2023/01/27 01:45:59;;;;;;;12.43;10.82;;;4.50;99.90;;;;;;5048605;28;20531;-58
2023/01/27 01:48:31;;;;;;;12.40;9.93;;;4.50;99.90;;;;;;5047843;28;20055;-60
2023/01/27 01:51:08;;;;;;;20.23;10.75;;;4.50;99.90;;;;;;5048662;28;20043;-59
2023/01/27 01:53:53;;;;;;;;;;;4.50;99.90;;;;;;5048145;28;20094;-59
2023/01/27 01:56:25;;;;;;;13.48;8.57;;;4.50;99.90;;;;;;5036815;28;20393;-58
2023/01/27 01:58:52;;;;;;;14.27;8.25;;;4.50;99.90;;;;;;5048105;28;20045;-58
2023/01/27 02:01:18;;;;;;;15.55;10.15;;;4.50;99.90;;;;;;5046196;28;20048;-58
2023/01/27 02:03:49;;;;;;;14.80;9.90;;;4.50;99.90;;;;;;5047077;28;20037;-58
2023/01/27 02:06:15;;;;;;;13.55;8.80;;;4.50;99.90;;;;;;5045174;28;20041;-59
2023/01/27 02:08:44;;;;;;;12.73;9.20;;;4.50;99.90;;;;;;5048218;28;20053;-58
2023/01/27 02:11:11;;;;;;;13.25;10.20;;;4.50;99.90;;;;;;5046714;28;20037;-58
2023/01/27 02:13:38;;;;;;;14.18;8.30;;;4.50;99.90;;;;;;5047796;28;20055;-57
2023/01/27 02:16:05;;;;;;;10.38;8.23;;;4.50;99.90;;;;;;5047418;28;21674;-57
2023/01/27 02:18:30;;;;;;;;;;;4.50;99.90;;;;;;5048022;28;20053;-57
2023/01/27 02:20:57;;;;;;;9.88;7.03;;;4.50;99.90;;;;;;5047904;28;19931;-59
2023/01/27 02:23:34;;;;;;;;;;;4.50;99.90;;;;;;5047326;28;20037;-58
2023/01/27 02:26:23;;;;;;;9.30;6.07;;;4.50;99.90;;;;;;5048213;28;19916;-59
2023/01/27 02:29:03;;;;;;;7.40;6.28;;;4.50;99.90;;;;;;5045555;28;20079;-57
2023/01/27 02:31:29;;;;;;;8.23;5.75;;;4.50;99.90;;;;;;5046332;28;20091;-58
2023/01/27 02:34:05;;;;;;;8.57;6.50;;;4.50;99.90;;;;;;5047064;28;20123;-58
2023/01/27 02:36:34;;;;;;;13.25;5.95;;;4.50;99.90;;;;;;5046748;28;20064;-59
2023/01/27 02:39:01;;;;;;;9.23;5.43;;;4.50;99.90;;;;;;5046897;28;20041;-57
2023/01/27 02:41:39;;;;;;;5.60;4.97;;;4.50;99.90;;;;;;5045196;28;20039;-58
2023/01/27 02:44:05;;;;;;;8.98;4.32;;;4.50;99.90;;;;;;5046296;28;20040;-59
2023/01/27 02:46:31;;;;;;;7.78;4.93;;;4.50;99.90;;;;;;5047914;28;20115;-59
2023/01/27 02:48:57;;;;;;;4.77;4.33;;;4.50;99.90;;;;;;5047354;28;20566;-59
2023/01/27 02:51:22;;;;;;;4.70;4.17;;;4.50;99.90;;;;;;5049727;28;20556;-58
2023/01/27 02:53:48;;;;;;;4.27;3.87;;;4.50;99.90;;;;;;5050645;28;20037;-59
2023/01/27 02:56:13;;;;;;;6.47;4.60;;;4.50;99.90;;;;;;5051917;28;20067;-59
2023/01/27 02:58:39;;;;;;;6.40;3.83;;;4.50;99.90;;;;;;5051378;28;20036;-59
2023/01/27 03:01:05;;;;;;;6.53;3.87;;;4.40;99.90;;;;;;5051246;28;20043;-58
2023/01/27 03:03:30;;;;;;;8.07;4.47;;;4.50;99.90;;;;;;5049353;28;20128;-59
2023/01/27 03:05:56;;;;;;;6.53;4.17;;;4.50;99.90;;;;;;5051605;28;20037;-59
2023/01/27 03:08:21;;;;;;;6.70;4.67;;;4.50;99.90;;;;;;5050532;28;20104;-59
2023/01/27 03:10:52;;;;;;;5.33;3.83;;;4.50;99.90;;;;;;5051600;28;20033;-59
2023/01/27 03:13:24;;;;;;;6.57;3.67;;;4.50;99.90;;;;;;5049947;28;20417;-59
2023/01/27 03:18:35;;;;;;;5.82;3.67;;;4.50;99.90;;;;;;5050473;28;20041;-60
2023/01/27 03:21:03;;;;;;;6.38;3.83;;;4.50;99.90;;;;;;5051011;28;20440;-59
2023/01/27 03:23:33;;;;;;;5.13;2.90;;;4.50;99.90;;;;;;5050233;28;20107;-57
2023/01/27 03:25:58;;;;;;;5.32;3.47;;;4.50;99.90;;;;;;5051133;28;20072;-59
2023/01/27 03:28:24;;;;;;;5.50;2.97;;;4.50;99.90;;;;;;5051272;28;20068;-59
2023/01/27 03:30:49;;;;;;;5.17;3.13;;;4.50;99.90;;;;;;5051200;28;20065;-58
2023/01/27 03:33:15;;;;;;;3.07;2.67;;;4.50;99.90;;;;;;5049810;28;20055;-59
2023/01/27 03:35:46;;;;;;;3.63;2.30;;;4.50;99.90;;;;;;5050918;28;20040;-59
2023/01/27 03:46:26;;;;;;;7.57;2.30;;;4.50;99.90;;;;;;5051006;28;20045;-59
2023/01/27 03:48:53;;;;;;;7.97;2.83;;;4.50;99.90;;;;;;5049934;28;20025;-59
2023/01/27 03:51:21;;;;;;;5.28;2.10;;;4.50;99.90;;;;;;5049722;28;20413;-58
2023/01/27 03:53:47;;;;;;;4.82;2.80;;;4.50;99.90;;;;;;5049566;28;20044;-59
2023/01/27 03:56:14;;;;;;;2.92;2.05;;;4.50;99.90;;;;;;5049584;28;20036;-59
2023/01/27 03:58:40;;;;;;;2.53;2.20;;;4.50;99.90;;;;;;5049210;28;20111;-59
2023/01/27 04:01:11;;;;;;;5.35;2.05;;;4.50;99.90;;;;;;5049752;28;20032;-59
2023/01/27 04:09:10;;;;;;;4.50;1.77;;;4.50;99.90;;;;;;5049996;28;20078;-59
2023/01/27 04:11:54;;;;;;;2.58;1.65;;;4.50;99.90;;;;;;5047693;28;20063;-58
2023/01/27 04:14:28;;;;;;;2.67;1.75;;;4.50;99.90;;;;;;5049453;28;20120;-58
2023/01/27 04:16:59;;;;;;;2.67;2.17;;;4.50;99.90;;;;;;5049547;28;20410;-58
2023/01/27 04:19:25;;;;;;;2.83;2.45;;;4.50;99.90;;;;;;5050497;28;20529;-59
2023/01/27 04:21:51;;;;;;;2.22;2.03;;;4.50;99.90;;;;;;5049842;28;20083;-57
2023/01/27 04:24:26;;;;;;;2.45;2.10;;;4.50;99.90;;;;;;5049110;28;20037;-58
2023/01/27 04:27:06;;;;;;;1.83;1.70;;;4.50;99.90;;;;;;5049131;28;20037;-57
2023/01/27 04:29:35;;;;;;;2.13;1.95;;;4.50;99.90;;;;;;5048596;28;20398;-60
2023/01/27 04:32:02;;;;;;;2.78;1.67;;;4.40;99.90;;;;;;5049122;28;20458;-58
2023/01/27 04:34:28;;;;;;;2.38;1.65;;;4.50;99.90;;;;;;5049497;28;20124;-59
2023/01/27 04:36:55;;;;;;;2.70;2.13;;;4.50;99.90;;;;;;5049338;28;20199;-58
2023/01/27 04:39:21;;;;;;;2.75;1.27;;;4.50;99.90;;;;;;5049903;28;20048;-58
2023/01/27 04:41:47;;;;;;;3.67;1.65;;;4.50;99.90;;;;;;5049394;28;20036;-59
2023/01/27 04:44:13;;;;;;;;;;;4.40;99.90;;;;;;5049032;28;20398;-59
2023/01/27 04:46:39;;;;;;;3.35;1.55;;;4.40;99.90;;;;;;5049637;28;19928;-57
2023/01/27 04:49:05;;;;;;;1.95;1.30;;;4.40;99.90;;;;;;5048825;28;20490;-59
2023/01/27 04:51:31;;;;;;;1.98;1.77;;;4.40;99.90;;;;;;5049243;28;20502;-59
2023/01/27 04:53:57;;;;;;;3.22;1.52;;;4.40;99.90;;;;;;5048308;28;20082;-59
2023/01/27 04:56:28;;;;;;;3.00;1.20;;;4.40;99.90;;;;;;5049599;28;20041;-59
2023/01/27 04:59:00;;;;;;;1.85;1.65;;;4.40;99.90;;;;;;5048727;28;20040;-58
2023/01/27 05:01:27;;;;;;;2.38;2.17;;;4.40;99.90;;;;;;5047849;28;20052;-58
2023/01/27 05:03:53;;;;;;;3.80;2.28;;;4.40;99.90;;;;;;5048081;28;20044;-58
2023/01/27 05:06:18;;;;;;;6.40;2.75;;;4.40;99.90;;;;;;5049133;28;20037;-59
2023/01/27 05:08:44;;;;;;;3.50;2.07;;;4.40;99.90;;;;;;5048701;28;20093;-59
2023/01/27 05:11:10;;;;;;;4.80;1.63;;;4.30;99.90;;;;;;5048902;28;20044;-59
2023/01/27 05:13:36;;;;;;;1.77;1.67;;;4.40;99.90;;;;;;5048529;28;20048;-59
2023/01/27 05:16:06;;;;;;;3.93;1.90;;;4.40;99.90;;;;;;5048962;28;20033;-58
2023/01/27 05:18:32;;;;;;;8.77;1.92;;;4.40;99.90;;;;;;5048653;28;20294;-58
2023/01/27 05:21:00;;;;;;;3.53;1.53;;;4.40;99.90;;;;;;5049097;28;20037;-58
2023/01/27 05:23:35;;;;;;;2.47;1.90;;;4.30;99.90;;;;;;5047508;28;20045;-56
2023/01/27 05:26:09;;;;;;;1.65;1.17;;;4.30;99.90;;;;;;5047897;28;20044;-58
2023/01/27 05:28:36;;;;;;;2.20;1.42;;;4.30;99.90;;;;;;5046529;28;20060;-59
2023/01/27 05:31:09;;;;;;;2.85;1.33;;;4.30;99.90;;;;;;5049071;28;20434;-57
2023/01/27 05:33:35;;;;;;;2.47;1.33;;;4.30;99.90;;;;;;5048201;28;20439;-58
2023/01/27 05:36:03;;;;;;;1.98;1.10;;;4.30;99.90;;;;;;5048684;28;20068;-59
2023/01/27 05:38:29;;;;;;;1.23;1.10;;;4.30;99.90;;;;;;5048296;28;20040;-59
2023/01/27 05:40:57;;;;;;;3.13;0.88;;;4.30;99.90;;;;;;5049127;28;20037;-59
2023/01/27 05:43:23;;;;;;;1.48;0.98;;;4.30;99.90;;;;;;5045209;28;20440;-59
2023/01/27 05:45:48;;;;;;;2.95;1.40;;;4.20;99.90;;;;;;5049210;28;20037;-59
2023/01/27 05:48:14;;;;;;;6.17;1.60;;;4.20;99.90;;;;;;5048145;28;20151;-57
2023/01/27 05:50:39;;;;;;;1.40;1.13;;;4.20;99.90;;;;;;5049108;28;20040;-58
2023/01/27 05:53:05;;;;;;;1.87;0.90;;;4.20;99.90;;;;;;5047441;28;20490;-58
2023/01/27 05:55:30;;;;;;;1.80;0.90;;;4.20;99.90;;;;;;5045571;28;20536;-58
2023/01/27 05:57:56;;;;;;;4.40;0.90;;;4.20;99.90;;;;;;5048019;28;20040;-59
2023/01/27 06:00:22;;;;;;;3.33;1.37;;;4.10;99.90;;;;;;5047434;28;20037;-59
2023/01/27 06:02:47;;;;;;;2.05;1.02;;;4.10;99.90;;;;;;5048669;28;20106;-59
2023/01/27 06:05:13;;;;;;;2.20;1.10;;;4.10;99.90;;;;;;5045494;28;20044;-57
2023/01/27 06:07:39;;;;;;;2.80;1.27;;;4.10;99.90;;;;;;5045176;28;20557;-58
2023/01/27 06:10:05;;;;;;;1.73;0.87;;;4.10;99.90;;;;;;5046568;28;20029;-58
2023/01/27 06:12:30;;;;;;;2.88;1.30;;;4.10;99.90;;;;;;5047645;28;20033;-61
2023/01/27 06:14:59;;;;;;;2.43;1.37;;;4.10;99.90;;;;;;5047305;28;20533;-59
2023/01/27 06:17:24;;;;;;;2.97;1.75;;;4.10;99.90;;;;;;5047984;28;20490;-59
2023/01/27 06:19:50;;;;;;;2.42;1.20;;;4.00;99.90;;;;;;5048084;28;20033;-58
2023/01/27 06:22:15;;;;;;;4.17;1.20;;;4.00;99.90;;;;;;5046399;28;20037;-58
2023/01/27 06:24:41;;;;;;;2.50;1.43;;;4.00;99.90;;;;;;5047396;28;20033;-59
2023/01/27 06:27:07;;;;;;;1.97;1.30;;;4.00;99.90;;;;;;5051109;28;20067;-58
2023/01/27 06:29:32;;;;;;;1.53;1.43;;;4.00;99.90;;;;;;5052282;28;20490;-59
2023/01/27 06:31:58;;;;;;;4.03;1.50;;;4.00;99.90;;;;;;5048994;28;20067;-58
2023/01/27 06:34:24;;;;;;;2.77;1.37;;;4.00;99.90;;;;;;5051626;28;20036;-58
2023/01/27 06:36:52;;;;;;;9.60;1.70;;;4.00;99.90;;;;;;5051277;28;20037;-58
2023/01/27 06:39:18;;;;;;;3.20;1.65;;;4.00;99.90;;;;;;5051318;28;20468;-58
2023/01/27 06:41:43;;;;;;;3.67;1.73;;;3.90;99.90;;;;;;5051742;28;20043;-59
2023/01/27 06:44:09;;;;;;;2.20;1.80;;;3.90;99.90;;;;;;5051343;28;20486;-59
2023/01/27 06:46:34;;;;;;;2.70;1.23;;;3.90;99.90;;;;;;5050684;28;20037;-59
2023/01/27 06:49:00;;;;;;;3.83;2.10;;;3.90;99.90;;;;;;5051445;28;20029;-59
2023/01/27 06:51:25;;;;;;;4.80;1.60;;;3.90;99.90;;;;;;5051377;28;20565;-58
2023/01/27 06:53:51;;;;;;;5.37;1.67;;;3.90;99.90;;;;;;5050866;28;20113;-58
2023/01/27 06:56:16;;;;;;;5.60;2.77;;;3.90;99.90;;;;;;5048607;28;20060;-59
2023/01/27 06:58:43;;;;;;;2.47;2.23;;;4.00;99.90;;;;;;5051271;28;20040;-58
2023/01/27 07:01:08;;;;;;;3.40;1.73;;;3.90;99.90;;;;;;5052086;28;20044;-57
2023/01/27 07:03:34;;;;;;;5.97;2.27;;;3.90;99.90;;;;;;5049762;28;20567;-59
2023/01/27 07:05:59;;;;;;;3.47;2.00;;;3.90;99.90;;;;;;5048719;28;20045;-59
2023/01/27 07:08:25;;;;;;;2.47;2.27;;;3.90;99.90;;;;;;5050484;28;20167;-59
2023/01/27 07:10:50;;;;;;;2.47;2.27;;;3.90;99.90;;;;;;5050089;28;20044;-58
2023/01/27 07:13:17;;;;;;;6.03;3.17;;;3.90;99.90;;;;;;5050247;28;20040;-58
2023/01/27 07:15:43;;;;;;;5.63;2.53;;;3.90;99.90;;;;;;5051069;28;20033;-58
2023/01/27 07:18:10;;;;;;;2.70;2.50;;;3.90;99.90;;;;;;5050893;28;20056;-59
2023/01/27 07:20:36;;;;;;;4.10;2.85;;;3.90;99.90;;;;;;5048464;28;20044;-59
2023/01/27 07:23:04;;;;;;;2.40;2.20;;;3.90;99.90;;;;;;5050361;28;20029;-58
2023/01/27 07:25:30;;;;;;;7.50;3.08;;;3.90;99.90;;;;;;5050932;28;20065;-57
2023/01/27 07:27:57;;;;;;;4.07;2.30;;;3.90;99.90;;;;;;5047955;28;20044;-59
2023/01/27 07:30:23;;;;;;;6.80;2.80;;;3.90;99.90;;;;;;5051691;28;20033;-57
2023/01/27 07:32:49;;;;;;;5.47;2.72;;;3.90;99.90;;;;;;5050265;28;20405;-59
2023/01/27 07:35:15;;;;;;;4.18;3.15;;;3.90;99.90;;;;;;5049051;28;20044;-57
2023/01/27 07:37:41;;;;;;;;;;;3.90;99.90;;;;;;5049239;28;20142;-59
2023/01/27 07:40:08;;;;;;;4.38;3.25;;;3.90;99.90;;;;;;5050418;28;19924;-59
2023/01/27 07:42:33;;;;;;;6.50;2.85;;;3.90;99.90;;;;;;5049780;28;20029;-58
2023/01/27 07:44:59;;;;;;;4.13;3.73;;;3.90;99.90;;;;;;5049867;28;20035;-58
2023/01/27 07:47:24;;;;;;;4.93;3.77;;;3.90;99.90;;;;;;5047856;28;20060;-59
2023/01/27 07:49:50;;;;;;;4.77;3.87;;;3.90;99.90;;;;;;5050366;28;20243;-58
2023/01/27 07:52:15;;;;;;;5.93;4.43;;;3.90;99.90;;;;;;5050011;28;20434;-57
2023/01/27 07:54:41;;;;;;;4.97;4.10;;;3.90;99.90;;;;;;5049924;28;20562;-56
2023/01/27 07:57:06;;;;;;;4.43;4.03;;;4.00;99.90;;;;;;5049933;28;20110;-54
2023/01/27 07:59:32;;;;;;;10.27;4.53;;;4.00;99.90;;;;;;5050320;28;20041;-54
2023/01/27 08:01:58;;;;;;;7.77;4.93;;;4.10;99.90;;;;;;5049674;28;20433;-56
2023/01/27 08:04:23;;;;;;;5.37;4.87;;;4.10;99.90;;;;;;5048835;28;20127;-56
2023/01/27 08:06:49;;;;;;;7.47;4.43;;;4.20;99.90;;;;;;5050092;28;20033;-57
2023/01/27 08:09:14;;;;;;;7.43;5.33;;;4.30;99.90;;;;;;5050132;28;20033;-55
2023/01/27 08:11:40;;;;;;;12.40;5.23;;;4.30;99.90;;;;;;5049599;28;20041;-56
2023/01/27 08:14:06;;;;;;;8.00;5.13;;;4.30;99.90;;;;;;5049427;28;20526;-56
2023/01/27 08:16:31;;;;;;;14.47;5.80;;;4.40;99.90;;;;;;5049480;28;20095;-57
2023/01/27 08:18:57;;;;;;;11.20;5.63;;;4.30;99.90;;;;;;5049331;28;20349;-56
2023/01/27 08:21:24;;;;;;;9.50;6.93;;;4.30;99.90;;;;;;5049813;28;20041;-57
2023/01/27 08:23:50;;;;;;;9.88;5.55;;;4.30;99.90;;;;;;5048984;28;20299;-55
2023/01/27 08:26:15;;;;;;;11.35;6.40;;;4.30;99.90;;;;;;5049608;28;20040;-57
2023/01/27 08:28:41;;;;;;;10.20;6.33;;;4.40;99.90;;;;;;5046831;28;20029;-57
2023/01/27 08:31:12;;;;;;;9.80;5.70;;;4.40;99.90;;;;;;5047416;28;20542;-58
2023/01/27 08:33:38;;;;;;;45.95;7.90;;;4.50;99.90;;;;;;5048361;28;20040;-58
2023/01/27 08:36:07;;;;;;;10.32;4.50;;;4.90;99.90;;;;;;5049186;28;20490;-56
2023/01/27 08:38:36;;;;;;;15.02;4.85;;;5.80;99.90;;;;;;5041884;28;20049;-57
2023/01/27 08:41:13;;;;;;;12.23;4.00;;;7.10;99.90;;;;;;5041534;28;20514;-57
2023/01/27 08:43:39;;;;;;;5.88;3.13;;;8.50;99.90;;;;;;5044010;28;20398;-56
2023/01/27 08:46:05;;;;;;;;;;;9.90;99.90;;;;;;5048581;28;20032;-56
2023/01/27 08:48:32;;;;;;;4.07;2.10;;;11.10;99.90;;;;;;5043607;28;19916;-58
2023/01/27 08:50:58;;;;;;;6.03;2.40;;;12.20;99.90;;;;;;5044198;28;21943;-59
2023/01/27 08:53:25;;;;;;;3.65;2.03;;;12.90;99.90;;;;;;5044168;28;20450;-57
2023/01/27 08:55:53;;;;;;;1.27;1.13;;;13.40;99.90;;;;;;5046538;28;20057;-58
2023/01/27 08:58:20;;;;;;;2.67;1.50;;;13.90;99.90;;;;;;5047573;28;20049;-58
2023/01/27 09:00:45;;;;;;;8.25;1.65;;;13.80;99.90;;;;;;5047276;28;20064;-55
2023/01/27 09:03:11;;;;;;;5.05;1.63;;;13.20;99.90;;;;;;5047602;28;20541;-57
2023/01/27 09:05:37;;;;;;;3.03;1.63;;;12.40;99.90;;;;;;5047592;28;20047;-58
2023/01/27 09:08:03;;;;;;;3.33;2.22;;;11.50;99.90;;;;;;5045564;28;20328;-57
2023/01/27 09:10:30;;;;;;;;;;;10.80;99.90;;;;;;5048069;28;20529;-58
2023/01/27 09:12:56;;;;;;;5.22;2.58;;;10.10;99.90;;;;;;5045744;28;20365;-56
2023/01/27 09:15:21;;;;;;;2.63;2.30;;;9.50;99.90;;;;;;5048118;28;20062;-57
2023/01/27 09:17:47;;;;;;;2.83;2.58;;;8.90;99.90;;;;;;5044666;28;20025;-55
2023/01/27 09:20:13;;;;;;;4.13;2.47;;;8.40;99.90;;;;;;5048710;28;20037;-56
2023/01/27 09:22:39;;;;;;;3.67;2.50;;;8.00;99.90;;;;;;5041608;28;20040;-58
2023/01/27 09:25:07;;;;;;;3.55;2.65;;;7.70;99.90;;;;;;5045162;28;20441;-58
2023/01/27 09:27:33;;;;;;;3.67;1.90;;;7.40;99.90;;;;;;5045392;28;20036;-56
2023/01/27 09:29:58;;;;;;;9.60;2.97;;;7.10;99.90;;;;;;5048370;28;20115;-58
2023/01/27 09:32:24;;;;;;;6.37;2.67;;;6.90;99.90;;;;;;5045848;28;20104;-59
2023/01/27 09:34:49;;;;;;;37.70;3.87;;;6.70;99.90;;;;;;5045218;28;20063;-58
2023/01/27 09:37:16;;;;;;;5.43;2.97;;;6.50;99.90;;;;;;5046955;28;20119;-55
2023/01/27 09:39:49;;;;;;;9.15;3.00;;;6.40;99.90;;;;;;5044138;28;20179;-59
2023/01/27 09:42:28;;;;;;;3.78;2.35;;;6.30;99.90;;;;;;5045702;28;20458;-58
2023/01/27 09:45:27;;;;;;;5.93;3.30;;;6.20;99.90;;;;;;5043887;28;20534;-56
2023/01/27 09:48:11;;;;;;;6.88;2.55;;;6.10;99.90;;;;;;5044893;28;20106;-57
2023/01/27 09:51:00;;;;;;;4.57;2.70;;;5.90;99.90;;;;;;5048807;28;20036;-58
2023/01/27 09:53:39;;;;;;;3.17;2.85;;;5.80;99.90;;;;;;5045285;28;20045;-57
2023/01/27 09:56:11;;;;;;;3.42;3.08;;;5.80;99.90;;;;;;5048185;28;20044;-57
2023/01/27 09:58:45;;;;;;;5.20;3.03;;;5.80;99.90;;;;;;5045085;28;20049;-58
2023/01/27 10:01:20;;;;;;;2.38;2.13;;;5.70;99.90;;;;;;5044463;28;20040;-58
2023/01/27 10:04:09;;;;;;;3.10;2.78;;;5.60;99.90;;;;;;5042359;28;20041;-58
2023/01/27 10:06:44;;;;;;;3.67;3.20;;;5.50;99.90;;;;;;5044583;28;20037;-58
2023/01/27 10:09:34;;;;;;;3.13;2.90;;;5.50;99.90;;;;;;5045471;28;20032;-57
2023/01/27 10:12:16;;;;;;;3.72;3.42;;;5.50;99.90;;;;;;5045307;28;20052;-56
2023/01/27 10:14:41;;;;;;;5.43;3.22;;;5.40;99.90;;;;;;5043817;28;20406;-57
2023/01/27 10:17:29;;;;;;;4.20;3.03;;;5.40;99.90;;;;;;5045996;28;20041;-57
2023/01/27 10:20:10;;;;;;;5.07;4.20;;;5.30;99.90;;;;;;5043337;28;20041;-56
2023/01/27 10:23:08;;;;;;;4.68;3.75;;;5.30;99.90;;;;;;5045106;28;20291;-58
2023/01/27 10:25:49;;;;;;;5.17;3.77;;;5.30;99.90;;;;;;5044099;28;20137;-57
2023/01/27 10:28:20;;;;;;;4.60;3.72;;;5.20;99.90;;;;;;5044331;28;20074;-57
2023/01/27 10:31:00;;;;;;;3.85;3.40;;;5.20;99.90;;;;;;5046081;28;20069;-56
2023/01/27 10:33:52;;;;;;;3.67;3.38;;;5.20;99.90;;;;;;5042744;28;20037;-58
2023/01/27 10:36:24;;;;;;;3.47;3.17;;;5.20;99.90;;;;;;5041924;28;20114;-56
2023/01/27 10:38:57;;;;;;;5.22;4.07;;;5.20;99.90;;;;;;5042565;28;20390;-57
2023/01/27 10:41:58;;;;;;;4.47;3.55;;;5.10;99.90;;;;;;5044803;28;20033;-57
2023/01/27 10:44:48;;;;;;;3.33;2.83;;;5.20;99.90;;;;;;5042703;28;20201;-57
2023/01/27 10:47:44;;;;;;;4.35;4.05;;;5.20;99.90;;;;;;5046274;28;20037;-57
2023/01/27 10:50:16;;;;;;;4.07;3.28;;;5.20;99.90;;;;;;5047244;28;20299;-58
2023/01/27 10:52:47;;;;;;;5.15;3.47;;;5.30;99.90;;;;;;5041130;28;20621;-58
2023/01/27 10:55:20;;;;;;;6.97;3.55;;;5.30;99.90;;;;;;5045338;28;20040;-59
2023/01/27 10:57:52;;;;;;;6.70;3.53;;;5.30;99.90;;;;;;5044018;28;20068;-56
2023/01/27 11:00:32;;;;;;;9.68;3.53;;;5.30;99.90;;;;;;5046933;28;20045;-57
2023/01/27 11:03:09;;;;;;;4.35;3.33;;;5.30;99.90;;;;;;5045494;28;20033;-57
2023/01/27 11:05:42;;;;;;;3.53;3.20;;;5.30;99.90;;;;;;5044827;28;20604;-57
2023/01/27 11:08:16;;;;;;;3.10;2.90;;;5.30;99.90;;;;;;5045933;28;20071;-57
2023/01/27 11:13:32;;;;;;;3.55;3.08;;;5.30;99.90;;;;;;5046094;28;20422;-57
2023/01/27 11:16:04;;;;;;;5.85;3.38;;;5.30;99.90;;;;;;5048790;28;20040;-57
2023/01/27 11:18:35;;;;;;;3.50;3.20;;;5.30;99.90;;;;;;5047907;28;20032;-56
2023/01/27 11:21:14;;;;;;;3.90;3.20;;;5.30;99.90;;;;;;5048992;28;20524;-57
2023/01/27 11:23:44;;;;;;;2.90;2.70;;;5.30;99.90;;;;;;5046991;28;20081;-57
2023/01/27 11:26:25;;;;;;;2.97;2.47;;;5.30;99.90;;;;;;5046427;28;20040;-56
2023/01/27 11:29:12;;;;;;;2.60;2.40;;;5.30;99.90;;;;;;5046555;28;20488;-58
2023/01/27 11:32:14;;;;;;;2.35;2.15;;;5.30;99.90;;;;;;5048159;28;20045;-58
2023/01/27 11:34:48;;;;;;;3.03;2.25;;;5.30;99.90;;;;;;5044730;28;20528;-57
2023/01/27 11:37:39;;;;;;;2.40;2.20;;;5.30;99.90;;;;;;5044903;28;20056;-55
2023/01/27 11:40:13;;;;;;;2.53;2.33;;;5.30;99.90;;;;;;5046217;28;20052;-56
2023/01/27 11:42:39;;;;;;;2.58;2.38;;;5.40;99.90;;;;;;5046081;28;20045;-58
2023/01/27 11:45:06;;;;;;;3.47;2.03;;;5.40;99.90;;;;;;5043742;28;20040;-54
2023/01/27 11:47:37;;;;;;;2.03;1.80;;;5.40;99.90;;;;;;5043305;28;20709;-57
2023/01/27 11:50:04;;;;;;;3.20;2.40;;;5.40;99.90;;;;;;5043478;28;20159;-57
2023/01/27 11:52:31;;;;;;;2.13;1.80;;;5.40;99.90;;;;;;5046086;28;20048;-58
2023/01/27 11:55:19;;;;;;;2.30;2.10;;;5.40;99.90;;;;;;5042721;28;20340;-57
2023/01/27 11:57:52;;;;;;;2.75;1.38;;;5.30;99.90;;;;;;5045949;28;20041;-55
2023/01/27 12:00:23;;;;;;;2.53;1.88;;;5.30;99.90;;;;;;5045401;28;20056;-58
2023/01/27 12:03:04;;;;;;;2.63;1.90;;;5.30;99.90;;;;;;5045989;28;20037;-57
2023/01/27 12:05:33;;;;;;;2.20;1.98;;;5.30;99.90;;;;;;5045661;28;20045;-57
2023/01/27 12:08:01;;;;;;;2.70;1.95;;;5.30;99.90;;;;;;5044388;28;20044;-58
2023/01/27 12:10:29;;;;;;;2.67;2.22;;;5.30;99.90;;;;;;5043002;28;20103;-58
2023/01/27 12:12:59;;;;;;;6.57;2.72;;;5.30;99.90;;;;;;5044384;28;20032;-57
2023/01/27 12:15:27;;;;;;;2.58;2.33;;;5.30;99.90;;;;;;5045235;28;20245;-57
2023/01/27 12:18:01;;;;;;;2.25;2.05;;;5.20;99.90;;;;;;5042337;28;20371;-57
2023/01/27 12:20:42;;;;;;;2.35;1.92;;;5.20;99.90;;;;;;5044779;28;20391;-58
2023/01/27 12:23:26;;;;;;;2.05;1.80;;;5.20;99.90;;;;;;5043186;28;20386;-57
2023/01/27 12:25:57;;;;;;;2.42;2.22;;;5.20;99.90;;;;;;5045456;28;20051;-58
2023/01/27 12:28:35;;;;;;;3.45;1.95;;;5.20;99.90;;;;;;5043110;28;20078;-57
2023/01/27 12:31:25;;;;;;;7.43;2.60;;;5.20;99.90;;;;;;5045529;28;20186;-58
2023/01/27 12:34:16;;;;;;;9.82;1.98;;;5.20;99.90;;;;;;5040158;28;20041;-58
2023/01/27 12:36:43;;;;;;;9.00;2.28;;;5.20;99.90;;;;;;5045249;28;20502;-58
2023/01/27 12:39:39;;;;;;;2.30;1.65;;;5.20;99.90;;;;;;5047115;28;20498;-58
2023/01/27 12:42:04;;;;;;;4.07;1.90;;;5.20;99.90;;;;;;5046333;28;20033;-58
2023/01/27 12:44:41;;;;;;;2.03;1.93;;;5.20;99.90;;;;;;5046747;28;20458;-57
2023/01/27 12:47:25;;;;;;;3.83;1.83;;;5.20;99.90;;;;;;5044207;28;20865;-58
2023/01/27 12:50:11;;;;;;;1.50;1.40;;;5.20;99.90;;;;;;5047262;28;20055;-57
2023/01/27 12:52:36;;;;;;;3.25;1.48;;;5.20;99.90;;;;;;5042252;28;20040;-57
2023/01/27 12:55:02;;;;;;;4.17;1.90;;;5.20;99.90;;;;;;5044684;28;20050;-58
2023/01/27 12:57:31;;;;;;;2.10;1.60;;;5.20;99.90;;;;;;5046872;28;20044;-59
2023/01/27 12:59:57;;;;;;;1.45;1.35;;;5.20;99.90;;;;;;5046623;28;20052;-57
2023/01/27 13:02:29;;;;;;;2.10;1.92;;;5.20;99.90;;;;;;5046196;28;20037;-58
2023/01/27 13:05:00;;;;;;;1.83;1.55;;;5.20;99.90;;;;;;5046727;28;20123;-58
2023/01/27 13:07:58;;;;;;;1.33;1.23;;;5.20;99.90;;;;;;5047610;28;20111;-58
2023/01/27 13:10:26;;;;;;;3.72;1.75;;;5.20;99.90;;;;;;5030686;28;20049;-58
2023/01/27 13:12:57;;;;;;;2.47;0.90;;;5.20;99.90;;;;;;5043623;28;20116;-58
2023/01/27 13:15:27;;;;;;;1.60;1.50;;;5.20;99.90;;;;;;5043827;28;20044;-56
2023/01/27 13:17:57;;;;;;;1.85;1.75;;;5.20;99.90;;;;;;5043955;28;20039;-57
2023/01/27 13:20:38;;;;;;;1.63;1.52;;;5.20;99.90;;;;;;5044734;28;20102;-58
2023/01/27 13:23:10;;;;;;;1.83;1.55;;;5.20;99.90;;;;;;5045698;28;20047;-56
2023/01/27 13:26:00;;;;;;;2.05;1.85;;;5.10;99.90;;;;;;5044266;28;20040;-57
2023/01/27 13:28:39;;;;;;;2.10;1.50;;;5.10;99.90;;;;;;5044186;28;20078;-58
2023/01/27 13:31:09;;;;;;;2.83;1.30;;;5.10;99.90;;;;;;5045168;28;20029;-56
2023/01/27 13:33:53;;;;;;;1.95;1.05;;;5.10;99.90;;;;;;5044610;28;20048;-57
2023/01/27 13:36:28;;;;;;;2.05;1.65;;;5.10;99.90;;;;;;5043249;28;20094;-57
2023/01/27 13:39:10;;;;;;;1.50;1.30;;;5.10;99.90;;;;;;5046889;28;20051;-57